createdAt,value
2018-06-04T00:01:56.278Z,27.93
2018-06-04T00:06:50.829Z,27.07
2018-06-04T00:11:45.402Z,29.17
2018-06-04T00:16:40.035Z,26.33
2018-06-04T00:21:34.921Z,27.70
2018-06-04T00:26:29.989Z,27.47
2018-06-04T00:31:25.215Z,28.87
2018-06-04T00:36:20.138Z,25.67
2018-06-04T00:41:14.840Z,24.23
2018-06-04T00:46:09.611Z,26.27
2018-06-04T00:51:04.209Z,25.93
2018-06-04T00:56:15.789Z,26.00
2018-06-04T01:01:10.550Z,26.27
2018-06-04T01:06:05.019Z,25.30
2018-06-04T01:10:59.656Z,26.77
2018-06-04T01:15:54.373Z,27.90
2018-06-04T01:20:48.838Z,26.60
2018-06-04T01:25:45.528Z,29.90
2018-06-04T01:30:40.115Z,29.07
2018-06-04T01:35:34.614Z,30.50
2018-06-04T01:40:29.420Z,29.90
2018-06-04T01:45:24.113Z,32.50
2018-06-04T01:50:19.181Z,32.43
2018-06-04T01:55:13.723Z,39.10
2018-06-04T02:00:08.381Z,34.90
2018-06-04T02:05:02.663Z,35.00
2018-06-04T02:09:57.544Z,33.47
2018-06-04T02:14:51.742Z,36.03
2018-06-04T02:19:46.489Z,34.93
2018-06-04T02:24:41.038Z,36.50
2018-06-04T02:29:35.493Z,36.17
2018-06-04T02:34:29.973Z,37.43
2018-06-04T02:39:24.446Z,34.87
2018-06-04T02:44:18.917Z,35.47
2018-06-04T02:49:13.318Z,38.07
2018-06-04T02:54:07.795Z,35.40
2018-06-04T02:59:02.286Z,39.43
2018-06-04T03:03:56.742Z,36.70
2018-06-04T03:08:51.457Z,33.97
2018-06-04T03:13:45.918Z,33.37
2018-06-04T03:18:40.670Z,36.30
2018-06-04T03:23:35.181Z,35.87
2018-06-04T03:28:29.884Z,36.13
2018-06-04T03:33:24.447Z,34.13
2018-06-04T03:38:18.623Z,31.50
2018-06-04T03:43:13.066Z,35.27
2018-06-04T03:48:07.297Z,36.50
2018-06-04T03:53:01.767Z,33.67
2018-06-04T03:57:56.749Z,29.77
2018-06-04T04:02:51.358Z,30.20
2018-06-04T04:07:45.961Z,30.97
2018-06-04T04:12:40.439Z,28.10
2018-06-04T04:17:34.917Z,28.63
2018-06-04T04:22:29.399Z,28.40
2018-06-04T04:27:23.649Z,28.70
2018-06-04T04:32:18.158Z,25.77
2018-06-04T04:37:12.647Z,28.93
2018-06-04T04:42:07.330Z,27.40
2018-06-04T04:47:01.799Z,26.90
2018-06-04T04:51:56.266Z,28.73
2018-06-04T04:56:50.703Z,27.13
2018-06-04T05:01:45.176Z,30.53
2018-06-04T05:06:39.812Z,30.27
2018-06-04T05:11:34.459Z,25.77
2018-06-04T05:16:28.703Z,24.47
2018-06-04T05:21:23.630Z,24.80
2018-06-04T05:26:18.378Z,23.07
2018-06-04T05:31:12.642Z,20.30
2018-06-04T05:36:07.100Z,22.80
2018-06-04T05:41:01.561Z,21.80
2018-06-04T05:45:56.314Z,21.40
2018-06-04T05:50:51.059Z,25.63
2018-06-04T05:55:45.850Z,20.83
2018-06-04T06:00:40.606Z,21.77
2018-06-04T06:05:35.721Z,19.80
2018-06-04T06:10:30.472Z,26.77
2018-06-04T06:15:25.324Z,20.77
2018-06-04T06:20:20.374Z,19.23
2018-06-04T06:25:15.287Z,25.97
2018-06-04T06:30:10.705Z,22.93
2018-06-04T06:35:05.435Z,17.40
2018-06-04T06:40:00.175Z,21.30
2018-06-04T06:44:55.182Z,16.77
2018-06-04T06:49:50.336Z,15.23
2018-06-04T06:54:44.874Z,16.63
2018-06-04T06:59:40.019Z,14.87
2018-06-04T07:04:34.890Z,14.33
2018-06-04T07:09:29.438Z,16.47
2018-06-04T07:14:24.233Z,16.37
2018-06-04T07:19:18.996Z,14.47
2018-06-04T07:24:13.875Z,16.20
2018-06-04T07:29:08.717Z,16.37
2018-06-04T07:34:03.496Z,15.40
2018-06-04T07:38:58.303Z,13.17
2018-06-04T07:43:53.217Z,13.40
2018-06-04T07:48:48.197Z,11.57
2018-06-04T07:53:43.113Z,13.03
2018-06-04T07:58:38.053Z,11.33
2018-06-04T08:03:32.898Z,12.83
2018-06-04T08:08:27.661Z,11.87
2018-06-04T08:13:22.607Z,11.40
2018-06-04T08:18:17.394Z,10.13
2018-06-04T08:23:12.141Z,9.30
2018-06-04T08:28:07.001Z,9.40
2018-06-04T08:33:01.561Z,12.37
2018-06-04T08:37:56.550Z,8.43
2018-06-04T08:42:51.355Z,7.97
2018-06-04T08:47:46.193Z,8.73
2018-06-04T08:52:40.905Z,6.93
2018-06-04T08:57:35.871Z,6.73
2018-06-04T09:02:30.809Z,6.03
2018-06-04T09:07:25.312Z,6.83
2018-06-04T09:12:19.914Z,7.10
2018-06-04T09:17:15.005Z,7.13
2018-06-04T09:22:09.746Z,7.03
2018-06-04T09:27:04.875Z,8.13
2018-06-04T09:31:59.662Z,6.20
2018-06-04T09:36:54.382Z,7.20
2018-06-04T09:41:49.150Z,7.07
2018-06-04T09:46:43.892Z,7.27
2018-06-04T09:51:38.630Z,6.47
2018-06-04T09:56:33.235Z,6.90
2018-06-04T10:01:27.964Z,7.07
2018-06-04T10:06:23.129Z,6.80
2018-06-04T10:11:18.295Z,7.23
2018-06-04T10:16:13.331Z,7.37
2018-06-04T10:21:08.224Z,6.50
2018-06-04T10:26:02.952Z,7.83
2018-06-04T10:30:58.209Z,8.00
2018-06-04T10:35:53.040Z,5.70
2018-06-04T10:40:47.787Z,6.20
2018-06-04T10:45:42.603Z,6.00
2018-06-04T10:50:37.382Z,6.13
2018-06-04T10:55:32.399Z,6.83
2018-06-04T11:00:27.171Z,9.57
2018-06-04T11:05:22.238Z,8.57
2018-06-04T11:10:17.022Z,7.13
2018-06-04T11:15:12.007Z,7.73
2018-06-04T11:20:06.732Z,6.33
2018-06-04T11:25:01.906Z,8.00
2018-06-04T11:29:57.500Z,9.47
2018-06-04T11:34:52.886Z,7.27
2018-06-04T11:39:47.711Z,5.40
2018-06-04T11:44:43.072Z,6.37
2018-06-04T11:49:38.567Z,6.50
2018-06-04T11:54:33.700Z,9.27
2018-06-04T11:59:28.886Z,5.87
2018-06-04T12:04:23.538Z,7.90
2018-06-04T12:09:18.427Z,6.87
2018-06-04T12:14:13.600Z,8.73
2018-06-04T12:19:08.762Z,7.47
2018-06-04T12:24:04.539Z,5.93
2018-06-04T12:29:00.083Z,5.93
2018-06-04T12:33:55.153Z,5.50
2018-06-04T12:38:50.337Z,5.17
2018-06-04T12:43:45.473Z,7.77
2018-06-04T12:48:40.905Z,5.27
2018-06-04T12:53:36.305Z,7.37
2018-06-04T12:58:31.352Z,6.50
2018-06-04T13:03:26.062Z,6.37
2018-06-04T13:08:21.183Z,7.23
2018-06-04T13:13:17.178Z,5.57
2018-06-04T13:18:12.713Z,7.33
2018-06-04T13:23:08.266Z,6.33
2018-06-04T13:28:03.161Z,4.90
2018-06-04T13:32:58.171Z,6.57
2018-06-04T13:37:52.923Z,7.53
2018-06-04T13:42:47.659Z,6.27
2018-06-04T13:47:43.163Z,5.37
2018-06-04T13:52:38.644Z,7.73
2018-06-04T13:57:33.716Z,6.73
2018-06-04T14:02:29.056Z,7.47
2018-06-04T14:07:24.742Z,6.17
2018-06-04T14:12:20.001Z,7.17
2018-06-04T14:17:14.555Z,5.13
2018-06-04T14:22:09.746Z,5.80
2018-06-04T14:27:06.124Z,6.03
2018-06-04T14:32:01.828Z,6.20
2018-06-04T14:36:57.598Z,6.53
2018-06-04T14:41:52.682Z,6.60
2018-06-04T14:46:48.008Z,6.03
2018-06-04T14:51:42.526Z,6.20
2018-06-04T14:56:37.329Z,7.33
2018-06-04T15:01:33.167Z,9.07
2018-06-04T15:06:28.202Z,7.20
2018-06-04T15:11:23.814Z,7.17
2018-06-04T15:16:18.634Z,6.97
2018-06-04T15:21:13.374Z,6.03
2018-06-04T15:26:08.731Z,7.10
2018-06-04T15:31:03.338Z,7.85
2018-06-04T15:35:58.199Z,7.13
2018-06-04T15:40:53.193Z,8.43
2018-06-04T15:45:47.727Z,6.80
2018-06-04T15:50:42.504Z,7.43
2018-06-04T15:55:36.967Z,10.10
2018-06-04T16:00:32.113Z,12.67
2018-06-04T16:05:26.735Z,10.33
2018-06-04T16:10:21.178Z,7.90
2018-06-04T16:15:15.894Z,11.37
2018-06-04T16:20:10.374Z,9.90
2018-06-04T16:25:04.838Z,8.77
2018-06-04T16:29:59.344Z,10.73
2018-06-04T16:34:53.978Z,8.83
2018-06-04T16:39:48.479Z,10.30
2018-06-04T16:44:42.985Z,8.47
2018-06-04T16:49:37.726Z,11.07
2018-06-04T16:54:32.501Z,10.50
2018-06-04T16:59:27.912Z,9.27
2018-06-04T17:04:22.885Z,10.47
2018-06-04T17:09:17.308Z,9.03
2018-06-04T17:14:12.191Z,11.23
2018-06-04T17:19:07.131Z,11.43
2018-06-04T17:24:02.297Z,16.67
2018-06-04T17:28:57.069Z,14.33
2018-06-04T17:33:53.640Z,13.77
2018-06-04T17:38:47.978Z,13.33
2018-06-04T17:43:42.711Z,15.63
2018-06-04T17:48:37.682Z,14.47
2018-06-04T17:53:32.449Z,16.40
2018-06-04T17:58:27.116Z,16.33
2018-06-04T18:03:22.574Z,15.47
2018-06-04T18:08:17.228Z,14.57
2018-06-04T18:13:12.421Z,15.27
2018-06-04T18:18:06.940Z,14.60
2018-06-04T18:23:02.311Z,16.30
2018-06-04T18:27:57.376Z,17.30
2018-06-04T18:32:51.975Z,16.47
2018-06-04T18:37:46.718Z,16.00
2018-06-04T18:42:41.275Z,15.37
2018-06-04T18:47:36.037Z,14.93
2018-06-04T18:52:30.594Z,15.33
2018-06-04T18:57:25.247Z,15.73
2018-06-04T19:02:20.092Z,15.53
2018-06-04T19:07:14.736Z,15.13
2018-06-04T19:12:09.520Z,15.87
2018-06-04T19:17:04.857Z,16.23
2018-06-04T19:21:59.629Z,17.13
2018-06-04T19:26:55.629Z,14.90
2018-06-04T19:31:50.534Z,17.73
2018-06-04T19:36:46.958Z,19.03
2018-06-04T19:41:44.128Z,20.53
2018-06-04T19:46:38.688Z,18.63
2018-06-04T19:51:33.428Z,17.50
2018-06-04T19:56:28.064Z,21.27
2018-06-04T20:01:22.742Z,19.60
2018-06-04T20:06:17.707Z,17.13
2018-06-04T20:11:13.757Z,15.57
2018-06-04T20:16:08.838Z,15.10
2018-06-04T20:21:05.922Z,19.43
2018-06-04T20:26:03.020Z,16.07
2018-06-04T20:30:58.070Z,16.27
2018-06-04T20:35:53.467Z,19.87
2018-06-04T20:40:48.191Z,19.90
2018-06-04T20:45:42.861Z,18.13
2018-06-04T20:50:43.668Z,16.10
2018-06-04T20:55:38.870Z,20.67
2018-06-04T21:00:33.535Z,19.47
2018-06-04T21:05:29.417Z,18.67
2018-06-04T21:10:24.856Z,20.80
2018-06-04T21:15:20.156Z,18.50
2018-06-04T21:20:15.295Z,18.33
2018-06-04T21:25:10.368Z,23.57
2018-06-04T21:30:05.227Z,18.70
2018-06-04T21:35:00.364Z,21.43
2018-06-04T21:39:55.406Z,19.40
2018-06-04T21:44:54.152Z,22.60
2018-06-04T21:49:50.488Z,21.93
2018-06-04T21:54:45.647Z,20.03
2018-06-04T21:59:41.030Z,22.97
2018-06-04T22:04:36.032Z,20.90
2018-06-04T22:09:30.628Z,20.07
2018-06-04T22:14:25.681Z,19.73
2018-06-04T22:19:20.363Z,20.73
2018-06-04T22:24:15.292Z,19.60
2018-06-04T22:29:11.329Z,20.10
2018-06-04T22:34:06.466Z,22.70
2018-06-04T22:39:01.424Z,19.30
2018-06-04T22:43:56.242Z,19.60
2018-06-04T22:48:50.976Z,19.73
2018-06-04T22:53:45.801Z,20.50
2018-06-04T22:58:40.808Z,18.70
2018-06-04T23:03:35.643Z,22.80
2018-06-04T23:08:30.850Z,21.87
2018-06-04T23:13:25.404Z,19.70
2018-06-04T23:18:19.669Z,22.13
2018-06-04T23:23:14.288Z,23.30
2018-06-04T23:28:08.759Z,23.67
2018-06-04T23:33:04.016Z,23.67
2018-06-04T23:37:58.843Z,22.30
2018-06-04T23:42:53.274Z,24.17
2018-06-04T23:47:47.660Z,23.43
2018-06-04T23:52:42.182Z,27.23
2018-06-04T23:57:36.973Z,25.43
